sensor_id;sensor_type;location;lat;lon;timestamp;P1;durP1;ratioP1;P2;durP2;ratioP2
57155;SDS011;43023;59.928;10.682;2023-03-23T00:01:55;3.22;;;1.48;;
57155;SDS011;43023;59.928;10.682;2023-03-23T00:04:21;3.85;;;1.58;;
57155;SDS011;43023;59.928;10.682;2023-03-23T00:06:49;2.83;;;1.40;;
57155;SDS011;43023;59.928;10.682;2023-03-23T00:09:15;3.40;;;1.80;;
57155;SDS011;43023;59.928;10.682;2023-03-23T00:11:42;3.38;;;1.80;;
57155;SDS011;43023;59.928;10.682;2023-03-23T00:14:09;2.22;;;1.40;;
57155;SDS011;43023;59.928;10.682;2023-03-23T00:16:39;5.18;;;2.15;;
57155;SDS011;43023;59.928;10.682;2023-03-23T00:19:13;2.50;;;1.48;;
57155;SDS011;43023;59.928;10.682;2023-03-23T00:24:11;2.42;;;1.55;;
57155;SDS011;43023;59.928;10.682;2023-03-23T00:26:39;3.50;;;1.58;;
57155;SDS011;43023;59.928;10.682;2023-03-23T00:29:08;3.88;;;2.08;;
57155;SDS011;43023;59.928;10.682;2023-03-23T00:31:38;3.50;;;1.60;;
57155;SDS011;43023;59.928;10.682;2023-03-23T00:34:04;3.08;;;1.27;;
57155;SDS011;43023;59.928;10.682;2023-03-23T00:36:32;3.00;;;1.48;;
57155;SDS011;43023;59.928;10.682;2023-03-23T00:39:00;2.28;;;1.40;;
57155;SDS011;43023;59.928;10.682;2023-03-23T00:41:26;1.75;;;1.15;;
57155;SDS011;43023;59.928;10.682;2023-03-23T00:43:54;4.57;;;2.20;;
57155;SDS011;43023;59.928;10.682;2023-03-23T00:46:20;3.05;;;1.50;;
57155;SDS011;43023;59.928;10.682;2023-03-23T00:48:46;2.15;;;1.30;;
57155;SDS011;43023;59.928;10.682;2023-03-23T00:51:12;3.58;;;1.63;;
57155;SDS011;43023;59.928;10.682;2023-03-23T00:53:39;4.20;;;1.58;;
57155;SDS011;43023;59.928;10.682;2023-03-23T00:56:05;2.53;;;1.15;;
57155;SDS011;43023;59.928;10.682;2023-03-23T00:58:32;2.45;;;1.27;;
57155;SDS011;43023;59.928;10.682;2023-03-23T01:00:58;4.32;;;1.52;;
57155;SDS011;43023;59.928;10.682;2023-03-23T01:03:24;3.33;;;1.63;;
57155;SDS011;43023;59.928;10.682;2023-03-23T01:05:51;3.60;;;1.50;;
57155;SDS011;43023;59.928;10.682;2023-03-23T01:08:18;4.20;;;1.38;;
57155;SDS011;43023;59.928;10.682;2023-03-23T01:10:45;3.60;;;1.50;;
57155;SDS011;43023;59.928;10.682;2023-03-23T01:13:11;4.10;;;1.35;;
57155;SDS011;43023;59.928;10.682;2023-03-23T01:15:38;4.28;;;1.20;;
57155;SDS011;43023;59.928;10.682;2023-03-23T01:18:04;4.43;;;1.50;;
57155;SDS011;43023;59.928;10.682;2023-03-23T01:20:30;6.05;;;1.40;;
57155;SDS011;43023;59.928;10.682;2023-03-23T01:22:57;4.35;;;1.58;;
57155;SDS011;43023;59.928;10.682;2023-03-23T01:25:25;2.47;;;1.13;;
57155;SDS011;43023;59.928;10.682;2023-03-23T01:27:51;1.85;;;1.30;;
57155;SDS011;43023;59.928;10.682;2023-03-23T01:30:17;5.18;;;1.70;;
57155;SDS011;43023;59.928;10.682;2023-03-23T01:32:43;5.28;;;1.73;;
57155;SDS011;43023;59.928;10.682;2023-03-23T01:35:11;3.65;;;1.52;;
57155;SDS011;43023;59.928;10.682;2023-03-23T01:37:38;3.58;;;1.40;;
57155;SDS011;43023;59.928;10.682;2023-03-23T01:40:04;3.55;;;1.23;;
57155;SDS011;43023;59.928;10.682;2023-03-23T01:42:32;2.03;;;1.27;;
57155;SDS011;43023;59.928;10.682;2023-03-23T01:47:43;3.75;;;1.52;;
57155;SDS011;43023;59.928;10.682;2023-03-23T01:50:09;1.95;;;1.08;;
57155;SDS011;43023;59.928;10.682;2023-03-23T01:52:36;2.00;;;1.13;;
57155;SDS011;43023;59.928;10.682;2023-03-23T01:55:02;3.70;;;1.40;;
57155;SDS011;43023;59.928;10.682;2023-03-23T01:57:29;4.22;;;1.60;;
57155;SDS011;43023;59.928;10.682;2023-03-23T01:59:56;2.42;;;1.35;;
57155;SDS011;43023;59.928;10.682;2023-03-23T02:02:24;2.60;;;1.15;;
57155;SDS011;43023;59.928;10.682;2023-03-23T02:04:51;2.97;;;1.30;;
57155;SDS011;43023;59.928;10.682;2023-03-23T02:07:17;2.67;;;1.13;;
57155;SDS011;43023;59.928;10.682;2023-03-23T02:09:45;3.42;;;1.33;;
57155;SDS011;43023;59.928;10.682;2023-03-23T02:12:11;2.85;;;1.35;;
57155;SDS011;43023;59.928;10.682;2023-03-23T02:14:37;3.40;;;1.23;;
57155;SDS011;43023;59.928;10.682;2023-03-23T02:17:11;3.08;;;1.02;;
57155;SDS011;43023;59.928;10.682;2023-03-23T02:19:52;2.10;;;1.00;;
57155;SDS011;43023;59.928;10.682;2023-03-23T02:24:55;2.92;;;1.27;;
57155;SDS011;43023;59.928;10.682;2023-03-23T02:30:09;3.42;;;1.40;;
57155;SDS011;43023;59.928;10.682;2023-03-23T02:32:50;3.33;;;1.45;;
57155;SDS011;43023;59.928;10.682;2023-03-23T02:35:41;4.82;;;1.15;;
57155;SDS011;43023;59.928;10.682;2023-03-23T02:40:54;1.38;;;1.10;;
57155;SDS011;43023;59.928;10.682;2023-03-23T02:43:22;3.55;;;0.93;;
57155;SDS011;43023;59.928;10.682;2023-03-23T02:45:50;2.25;;;1.10;;
57155;SDS011;43023;59.928;10.682;2023-03-23T02:48:17;2.35;;;1.30;;
57155;SDS011;43023;59.928;10.682;2023-03-23T02:50:45;1.33;;;0.90;;
57155;SDS011;43023;59.928;10.682;2023-03-23T02:53:13;4.85;;;1.83;;
57155;SDS011;43023;59.928;10.682;2023-03-23T02:55:41;5.35;;;1.50;;
57155;SDS011;43023;59.928;10.682;2023-03-23T02:58:09;4.75;;;1.52;;
57155;SDS011;43023;59.928;10.682;2023-03-23T03:03:12;3.50;;;1.60;;
57155;SDS011;43023;59.928;10.682;2023-03-23T03:11:09;3.28;;;1.27;;
57155;SDS011;43023;59.928;10.682;2023-03-23T03:18:40;4.03;;;1.30;;
57155;SDS011;43023;59.928;10.682;2023-03-23T03:21:09;4.40;;;1.38;;
57155;SDS011;43023;59.928;10.682;2023-03-23T03:23:38;3.55;;;1.30;;
57155;SDS011;43023;59.928;10.682;2023-03-23T03:26:07;4.18;;;1.40;;
57155;SDS011;43023;59.928;10.682;2023-03-23T03:28:35;3.63;;;1.17;;
57155;SDS011;43023;59.928;10.682;2023-03-23T03:31:01;4.22;;;1.48;;
57155;SDS011;43023;59.928;10.682;2023-03-23T03:33:28;3.03;;;1.30;;
57155;SDS011;43023;59.928;10.682;2023-03-23T03:35:56;2.88;;;1.27;;
57155;SDS011;43023;59.928;10.682;2023-03-23T03:38:23;3.92;;;1.42;;
57155;SDS011;43023;59.928;10.682;2023-03-23T03:40:50;3.03;;;1.17;;
57155;SDS011;43023;59.928;10.682;2023-03-23T03:43:16;3.58;;;1.25;;
57155;SDS011;43023;59.928;10.682;2023-03-23T03:45:42;5.97;;;1.52;;
57155;SDS011;43023;59.928;10.682;2023-03-23T03:48:09;3.30;;;1.40;;
57155;SDS011;43023;59.928;10.682;2023-03-23T03:50:35;5.03;;;1.50;;
57155;SDS011;43023;59.928;10.682;2023-03-23T03:53:01;3.03;;;1.40;;
57155;SDS011;43023;59.928;10.682;2023-03-23T03:55:28;2.03;;;1.13;;
57155;SDS011;43023;59.928;10.682;2023-03-23T03:57:54;4.95;;;1.73;;
57155;SDS011;43023;59.928;10.682;2023-03-23T04:00:20;3.42;;;1.50;;
57155;SDS011;43023;59.928;10.682;2023-03-23T04:02:48;6.68;;;1.40;;
57155;SDS011;43023;59.928;10.682;2023-03-23T04:05:19;3.03;;;1.70;;
57155;SDS011;43023;59.928;10.682;2023-03-23T04:07:45;4.68;;;1.45;;
57155;SDS011;43023;59.928;10.682;2023-03-23T04:10:14;4.90;;;1.08;;
57155;SDS011;43023;59.928;10.682;2023-03-23T04:12:40;3.55;;;0.90;;
57155;SDS011;43023;59.928;10.682;2023-03-23T04:15:06;1.98;;;0.88;;
57155;SDS011;43023;59.928;10.682;2023-03-23T04:17:33;3.85;;;1.33;;
57155;SDS011;43023;59.928;10.682;2023-03-23T04:20:00;2.45;;;1.48;;
57155;SDS011;43023;59.928;10.682;2023-03-23T04:22:36;4.43;;;1.75;;
57155;SDS011;43023;59.928;10.682;2023-03-23T04:25:02;3.38;;;1.27;;
57155;SDS011;43023;59.928;10.682;2023-03-23T04:27:31;2.33;;;1.08;;
57155;SDS011;43023;59.928;10.682;2023-03-23T04:29:57;2.72;;;1.08;;
57155;SDS011;43023;59.928;10.682;2023-03-23T04:32:24;3.75;;;1.17;;
57155;SDS011;43023;59.928;10.682;2023-03-23T04:34:53;3.17;;;1.08;;
57155;SDS011;43023;59.928;10.682;2023-03-23T04:37:19;4.13;;;1.00;;
57155;SDS011;43023;59.928;10.682;2023-03-23T04:39:50;3.88;;;1.30;;
57155;SDS011;43023;59.928;10.682;2023-03-23T04:42:26;5.03;;;1.42;;
57155;SDS011;43023;59.928;10.682;2023-03-23T04:44:52;3.33;;;1.15;;
57155;SDS011;43023;59.928;10.682;2023-03-23T04:47:19;4.80;;;1.33;;
57155;SDS011;43023;59.928;10.682;2023-03-23T04:49:45;2.38;;;1.08;;
57155;SDS011;43023;59.928;10.682;2023-03-23T04:52:12;2.63;;;1.33;;
57155;SDS011;43023;59.928;10.682;2023-03-23T04:54:39;3.65;;;1.25;;
57155;SDS011;43023;59.928;10.682;2023-03-23T04:57:05;2.38;;;1.10;;
57155;SDS011;43023;59.928;10.682;2023-03-23T04:59:33;5.70;;;1.58;;
57155;SDS011;43023;59.928;10.682;2023-03-23T05:01:59;2.88;;;1.20;;
57155;SDS011;43023;59.928;10.682;2023-03-23T05:04:25;2.35;;;1.08;;
57155;SDS011;43023;59.928;10.682;2023-03-23T05:06:51;5.80;;;1.48;;
57155;SDS011;43023;59.928;10.682;2023-03-23T05:09:18;2.83;;;1.13;;
57155;SDS011;43023;59.928;10.682;2023-03-23T05:11:44;3.25;;;1.10;;
57155;SDS011;43023;59.928;10.682;2023-03-23T05:14:11;3.10;;;1.17;;
57155;SDS011;43023;59.928;10.682;2023-03-23T05:16:37;2.92;;;1.23;;
57155;SDS011;43023;59.928;10.682;2023-03-23T05:19:03;3.30;;;1.10;;
57155;SDS011;43023;59.928;10.682;2023-03-23T05:21:30;3.35;;;1.50;;
57155;SDS011;43023;59.928;10.682;2023-03-23T05:23:56;2.85;;;1.10;;
57155;SDS011;43023;59.928;10.682;2023-03-23T05:26:25;3.50;;;1.20;;
57155;SDS011;43023;59.928;10.682;2023-03-23T05:28:55;3.67;;;1.13;;
57155;SDS011;43023;59.928;10.682;2023-03-23T05:31:22;2.75;;;0.98;;
57155;SDS011;43023;59.928;10.682;2023-03-23T05:33:50;2.78;;;1.42;;
57155;SDS011;43023;59.928;10.682;2023-03-23T05:36:16;2.65;;;1.02;;
57155;SDS011;43023;59.928;10.682;2023-03-23T05:38:42;5.22;;;1.65;;
57155;SDS011;43023;59.928;10.682;2023-03-23T05:41:19;3.13;;;1.45;;
57155;SDS011;43023;59.928;10.682;2023-03-23T05:43:46;1.63;;;0.95;;
57155;SDS011;43023;59.928;10.682;2023-03-23T05:46:12;1.90;;;0.98;;
57155;SDS011;43023;59.928;10.682;2023-03-23T05:48:39;6.20;;;1.88;;
57155;SDS011;43023;59.928;10.682;2023-03-23T05:51:05;2.38;;;0.82;;
57155;SDS011;43023;59.928;10.682;2023-03-23T05:53:32;4.47;;;1.33;;
57155;SDS011;43023;59.928;10.682;2023-03-23T05:55:59;2.00;;;1.27;;
57155;SDS011;43023;59.928;10.682;2023-03-23T05:58:25;5.13;;;1.60;;
57155;SDS011;43023;59.928;10.682;2023-03-23T06:00:51;4.18;;;1.38;;
57155;SDS011;43023;59.928;10.682;2023-03-23T06:03:17;5.95;;;1.42;;
57155;SDS011;43023;59.928;10.682;2023-03-23T06:05:44;4.97;;;1.30;;
57155;SDS011;43023;59.928;10.682;2023-03-23T06:08:10;3.05;;;1.50;;
57155;SDS011;43023;59.928;10.682;2023-03-23T06:10:37;5.45;;;1.58;;
57155;SDS011;43023;59.928;10.682;2023-03-23T06:13:03;5.97;;;1.55;;
57155;SDS011;43023;59.928;10.682;2023-03-23T06:15:30;3.08;;;1.27;;
57155;SDS011;43023;59.928;10.682;2023-03-23T06:18:00;5.68;;;1.13;;
57155;SDS011;43023;59.928;10.682;2023-03-23T06:20:27;2.10;;;0.98;;
57155;SDS011;43023;59.928;10.682;2023-03-23T06:22:54;8.93;;;1.60;;
57155;SDS011;43023;59.928;10.682;2023-03-23T06:25:21;6.32;;;1.85;;
57155;SDS011;43023;59.928;10.682;2023-03-23T06:27:47;4.80;;;1.40;;
57155;SDS011;43023;59.928;10.682;2023-03-23T06:30:13;3.60;;;1.60;;
57155;SDS011;43023;59.928;10.682;2023-03-23T06:32:40;4.22;;;1.48;;
57155;SDS011;43023;59.928;10.682;2023-03-23T06:35:07;4.72;;;1.63;;
57155;SDS011;43023;59.928;10.682;2023-03-23T06:37:35;6.38;;;1.80;;
57155;SDS011;43023;59.928;10.682;2023-03-23T06:40:02;6.28;;;1.50;;
57155;SDS011;43023;59.928;10.682;2023-03-23T06:42:31;6.18;;;1.48;;
57155;SDS011;43023;59.928;10.682;2023-03-23T06:44:58;3.72;;;1.30;;
57155;SDS011;43023;59.928;10.682;2023-03-23T06:47:26;4.25;;;1.45;;
57155;SDS011;43023;59.928;10.682;2023-03-23T06:49:56;3.53;;;1.50;;
57155;SDS011;43023;59.928;10.682;2023-03-23T06:52:23;5.53;;;1.30;;
57155;SDS011;43023;59.928;10.682;2023-03-23T06:54:49;4.20;;;1.30;;
57155;SDS011;43023;59.928;10.682;2023-03-23T06:57:15;3.28;;;1.60;;
57155;SDS011;43023;59.928;10.682;2023-03-23T06:59:42;4.45;;;1.50;;
57155;SDS011;43023;59.928;10.682;2023-03-23T07:02:11;4.20;;;1.20;;
57155;SDS011;43023;59.928;10.682;2023-03-23T07:04:39;4.70;;;1.23;;
57155;SDS011;43023;59.928;10.682;2023-03-23T07:07:06;3.75;;;1.50;;
57155;SDS011;43023;59.928;10.682;2023-03-23T07:09:33;4.03;;;1.52;;
57155;SDS011;43023;59.928;10.682;2023-03-23T07:11:59;5.20;;;1.17;;
57155;SDS011;43023;59.928;10.682;2023-03-23T07:14:25;3.22;;;1.38;;
57155;SDS011;43023;59.928;10.682;2023-03-23T07:16:51;9.77;;;1.80;;
57155;SDS011;43023;59.928;10.682;2023-03-23T07:19:18;5.43;;;1.75;;
57155;SDS011;43023;59.928;10.682;2023-03-23T07:21:45;4.07;;;1.40;;
57155;SDS011;43023;59.928;10.682;2023-03-23T07:24:11;5.68;;;1.50;;
57155;SDS011;43023;59.928;10.682;2023-03-23T07:26:39;7.03;;;1.60;;
57155;SDS011;43023;59.928;10.682;2023-03-23T07:29:06;6.45;;;1.75;;
57155;SDS011;43023;59.928;10.682;2023-03-23T07:31:32;4.60;;;1.52;;
57155;SDS011;43023;59.928;10.682;2023-03-23T07:33:59;4.20;;;1.25;;
57155;SDS011;43023;59.928;10.682;2023-03-23T07:36:26;4.15;;;1.75;;
57155;SDS011;43023;59.928;10.682;2023-03-23T07:38:52;3.85;;;1.75;;
57155;SDS011;43023;59.928;10.682;2023-03-23T07:41:18;2.88;;;1.58;;
57155;SDS011;43023;59.928;10.682;2023-03-23T07:43:45;4.00;;;1.20;;
57155;SDS011;43023;59.928;10.682;2023-03-23T07:46:11;2.65;;;1.10;;
57155;SDS011;43023;59.928;10.682;2023-03-23T07:48:37;6.10;;;1.48;;
57155;SDS011;43023;59.928;10.682;2023-03-23T07:51:04;6.40;;;1.52;;
57155;SDS011;43023;59.928;10.682;2023-03-23T07:53:30;6.00;;;1.67;;
57155;SDS011;43023;59.928;10.682;2023-03-23T07:55:57;2.92;;;1.60;;
57155;SDS011;43023;59.928;10.682;2023-03-23T07:58:23;5.18;;;1.60;;
57155;SDS011;43023;59.928;10.682;2023-03-23T08:00:51;5.93;;;1.55;;
57155;SDS011;43023;59.928;10.682;2023-03-23T08:03:18;4.22;;;1.60;;
57155;SDS011;43023;59.928;10.682;2023-03-23T08:05:44;4.63;;;1.67;;
57155;SDS011;43023;59.928;10.682;2023-03-23T08:08:10;3.40;;;1.70;;
57155;SDS011;43023;59.928;10.682;2023-03-23T08:10:37;3.97;;;1.75;;
57155;SDS011;43023;59.928;10.682;2023-03-23T08:13:03;3.88;;;1.35;;
57155;SDS011;43023;59.928;10.682;2023-03-23T08:15:31;5.07;;;1.50;;
57155;SDS011;43023;59.928;10.682;2023-03-23T08:17:57;4.82;;;1.55;;
57155;SDS011;43023;59.928;10.682;2023-03-23T08:20:25;6.65;;;1.60;;
57155;SDS011;43023;59.928;10.682;2023-03-23T08:22:52;2.92;;;1.30;;
57155;SDS011;43023;59.928;10.682;2023-03-23T08:25:20;4.05;;;1.73;;
57155;SDS011;43023;59.928;10.682;2023-03-23T08:27:46;4.60;;;1.50;;
57155;SDS011;43023;59.928;10.682;2023-03-23T08:30:14;3.45;;;1.30;;
57155;SDS011;43023;59.928;10.682;2023-03-23T08:32:40;4.05;;;1.20;;
57155;SDS011;43023;59.928;10.682;2023-03-23T08:35:07;5.60;;;1.75;;
57155;SDS011;43023;59.928;10.682;2023-03-23T08:37:34;5.18;;;1.33;;
57155;SDS011;43023;59.928;10.682;2023-03-23T08:40:00;3.55;;;1.38;;
57155;SDS011;43023;59.928;10.682;2023-03-23T08:42:32;4.68;;;1.45;;
57155;SDS011;43023;59.928;10.682;2023-03-23T08:44:58;5.43;;;1.17;;
57155;SDS011;43023;59.928;10.682;2023-03-23T08:47:24;3.17;;;1.40;;
57155;SDS011;43023;59.928;10.682;2023-03-23T08:49:51;5.68;;;1.88;;
57155;SDS011;43023;59.928;10.682;2023-03-23T08:52:19;5.05;;;1.83;;
57155;SDS011;43023;59.928;10.682;2023-03-23T08:54:45;4.63;;;1.63;;
57155;SDS011;43023;59.928;10.682;2023-03-23T08:57:12;4.75;;;1.30;;
57155;SDS011;43023;59.928;10.682;2023-03-23T08:59:43;3.15;;;1.20;;
57155;SDS011;43023;59.928;10.682;2023-03-23T09:02:10;3.40;;;1.23;;
57155;SDS011;43023;59.928;10.682;2023-03-23T09:04:40;4.55;;;1.13;;
57155;SDS011;43023;59.928;10.682;2023-03-23T09:07:09;2.40;;;0.90;;
57155;SDS011;43023;59.928;10.682;2023-03-23T09:09:37;4.55;;;1.13;;
57155;SDS011;43023;59.928;10.682;2023-03-23T09:12:05;5.25;;;1.33;;
57155;SDS011;43023;59.928;10.682;2023-03-23T09:14:31;5.35;;;1.35;;
57155;SDS011;43023;59.928;10.682;2023-03-23T09:16:57;4.20;;;1.33;;
57155;SDS011;43023;59.928;10.682;2023-03-23T09:19:23;3.65;;;1.33;;
57155;SDS011;43023;59.928;10.682;2023-03-23T09:21:49;4.20;;;1.35;;
57155;SDS011;43023;59.928;10.682;2023-03-23T09:24:16;4.68;;;1.40;;
57155;SDS011;43023;59.928;10.682;2023-03-23T09:26:42;3.70;;;1.00;;
57155;SDS011;43023;59.928;10.682;2023-03-23T09:29:08;4.40;;;1.33;;
57155;SDS011;43023;59.928;10.682;2023-03-23T09:31:34;4.15;;;1.13;;
57155;SDS011;43023;59.928;10.682;2023-03-23T09:34:02;4.25;;;1.25;;
57155;SDS011;43023;59.928;10.682;2023-03-23T09:36:29;5.00;;;1.50;;
57155;SDS011;43023;59.928;10.682;2023-03-23T09:38:55;6.50;;;1.45;;
57155;SDS011;43023;59.928;10.682;2023-03-23T09:49:09;3.15;;;1.42;;
57155;SDS011;43023;59.928;10.682;2023-03-23T09:51:53;3.00;;;0.93;;
57155;SDS011;43023;59.928;10.682;2023-03-23T09:54:34;2.80;;;1.20;;
57155;SDS011;43023;59.928;10.682;2023-03-23T09:57:01;3.25;;;0.82;;
57155;SDS011;43023;59.928;10.682;2023-03-23T09:59:37;2.47;;;0.90;;
57155;SDS011;43023;59.928;10.682;2023-03-23T10:02:12;3.50;;;1.20;;
57155;SDS011;43023;59.928;10.682;2023-03-23T10:04:46;1.85;;;0.93;;
57155;SDS011;43023;59.928;10.682;2023-03-23T10:07:23;2.30;;;0.85;;
57155;SDS011;43023;59.928;10.682;2023-03-23T10:09:54;2.83;;;0.88;;
57155;SDS011;43023;59.928;10.682;2023-03-23T10:12:30;4.07;;;1.20;;
57155;SDS011;43023;59.928;10.682;2023-03-23T10:15:04;3.17;;;1.10;;
57155;SDS011;43023;59.928;10.682;2023-03-23T10:17:35;1.10;;;0.80;;
57155;SDS011;43023;59.928;10.682;2023-03-23T10:22:33;2.03;;;0.98;;
57155;SDS011;43023;59.928;10.682;2023-03-23T10:30:24;2.55;;;0.85;;
57155;SDS011;43023;59.928;10.682;2023-03-23T10:32:53;1.65;;;0.90;;
57155;SDS011;43023;59.928;10.682;2023-03-23T10:35:25;1.42;;;0.80;;
57155;SDS011;43023;59.928;10.682;2023-03-23T10:37:56;1.83;;;0.95;;
57155;SDS011;43023;59.928;10.682;2023-03-23T10:42:51;2.88;;;0.60;;
57155;SDS011;43023;59.928;10.682;2023-03-23T10:45:27;2.67;;;0.60;;
57155;SDS011;43023;59.928;10.682;2023-03-23T10:50:26;1.45;;;0.50;;
57155;SDS011;43023;59.928;10.682;2023-03-23T10:52:52;1.00;;;0.63;;
57155;SDS011;43023;59.928;10.682;2023-03-23T10:55:21;0.90;;;0.70;;
57155;SDS011;43023;59.928;10.682;2023-03-23T10:58:08;2.13;;;0.65;;
57155;SDS011;43023;59.928;10.682;2023-03-23T11:00:40;0.63;;;0.45;;
57155;SDS011;43023;59.928;10.682;2023-03-23T11:03:52;2.30;;;0.50;;
57155;SDS011;43023;59.928;10.682;2023-03-23T11:05:57;1.05;;;0.55;;
57155;SDS011;43023;59.928;10.682;2023-03-23T11:08:30;1.08;;;0.50;;
57155;SDS011;43023;59.928;10.682;2023-03-23T11:11:09;2.60;;;0.65;;
57155;SDS011;43023;59.928;10.682;2023-03-23T11:13:38;1.77;;;0.80;;
57155;SDS011;43023;59.928;10.682;2023-03-23T11:16:05;1.15;;;0.32;;
57155;SDS011;43023;59.928;10.682;2023-03-23T11:18:38;1.52;;;0.60;;
57155;SDS011;43023;59.928;10.682;2023-03-23T11:21:05;1.42;;;0.40;;
57155;SDS011;43023;59.928;10.682;2023-03-23T11:23:38;1.35;;;0.55;;
57155;SDS011;43023;59.928;10.682;2023-03-23T11:26:18;0.88;;;0.40;;
57155;SDS011;43023;59.928;10.682;2023-03-23T11:31:21;1.08;;;0.60;;
57155;SDS011;43023;59.928;10.682;2023-03-23T11:36:13;1.55;;;0.82;;
57155;SDS011;43023;59.928;10.682;2023-03-23T11:38:40;1.05;;;0.50;;
57155;SDS011;43023;59.928;10.682;2023-03-23T11:41:10;0.95;;;0.47;;
57155;SDS011;43023;59.928;10.682;2023-03-23T11:43:39;1.13;;;0.45;;
57155;SDS011;43023;59.928;10.682;2023-03-23T11:46:09;0.50;;;0.40;;
57155;SDS011;43023;59.928;10.682;2023-03-23T11:48:47;0.77;;;0.35;;
57155;SDS011;43023;59.928;10.682;2023-03-23T11:51:17;2.47;;;0.55;;
57155;SDS011;43023;59.928;10.682;2023-03-23T11:58:56;2.70;;;0.52;;
57155;SDS011;43023;59.928;10.682;2023-03-23T12:06:58;1.60;;;0.43;;
57155;SDS011;43023;59.928;10.682;2023-03-23T12:11:56;0.98;;;0.60;;
57155;SDS011;43023;59.928;10.682;2023-03-23T12:14:35;0.98;;;0.43;;
57155;SDS011;43023;59.928;10.682;2023-03-23T12:25:08;0.73;;;0.55;;
57155;SDS011;43023;59.928;10.682;2023-03-23T12:27:45;0.75;;;0.30;;
57155;SDS011;43023;59.928;10.682;2023-03-23T12:30:17;3.10;;;0.77;;
57155;SDS011;43023;59.928;10.682;2023-03-23T12:35:34;1.25;;;0.40;;
57155;SDS011;43023;59.928;10.682;2023-03-23T12:43:28;0.60;;;0.40;;
57155;SDS011;43023;59.928;10.682;2023-03-23T12:48:29;1.33;;;0.47;;
57155;SDS011;43023;59.928;10.682;2023-03-23T12:51:03;3.15;;;1.02;;
57155;SDS011;43023;59.928;10.682;2023-03-23T12:53:30;1.10;;;0.20;;
57155;SDS011;43023;59.928;10.682;2023-03-23T12:58:40;0.60;;;0.50;;
57155;SDS011;43023;59.928;10.682;2023-03-23T13:01:09;0.45;;;0.40;;
57155;SDS011;43023;59.928;10.682;2023-03-23T13:06:50;1.52;;;0.63;;
57155;SDS011;43023;59.928;10.682;2023-03-23T13:11:36;0.43;;;0.30;;
57155;SDS011;43023;59.928;10.682;2023-03-23T13:14:07;1.13;;;0.40;;
57155;SDS011;43023;59.928;10.682;2023-03-23T13:21:54;2.22;;;0.70;;
57155;SDS011;43023;59.928;10.682;2023-03-23T13:24:23;0.47;;;0.47;;
57155;SDS011;43023;59.928;10.682;2023-03-23T13:26:50;0.80;;;0.50;;
57155;SDS011;43023;59.928;10.682;2023-03-23T13:29:20;1.88;;;0.77;;
57155;SDS011;43023;59.928;10.682;2023-03-23T13:31:49;0.40;;;0.30;;
57155;SDS011;43023;59.928;10.682;2023-03-23T13:34:20;0.88;;;0.52;;
57155;SDS011;43023;59.928;10.682;2023-03-23T13:39:20;1.67;;;0.60;;
57155;SDS011;43023;59.928;10.682;2023-03-23T13:42:34;0.80;;;0.60;;
57155;SDS011;43023;59.928;10.682;2023-03-23T13:44:54;2.10;;;0.70;;
57155;SDS011;43023;59.928;10.682;2023-03-23T13:50:05;2.67;;;0.85;;
57155;SDS011;43023;59.928;10.682;2023-03-23T13:55:19;0.88;;;0.47;;
57155;SDS011;43023;59.928;10.682;2023-03-23T14:02:50;0.68;;;0.60;;
57155;SDS011;43023;59.928;10.682;2023-03-23T14:07:59;0.90;;;0.63;;
57155;SDS011;43023;59.928;10.682;2023-03-23T14:10:32;2.08;;;0.70;;
57155;SDS011;43023;59.928;10.682;2023-03-23T14:12:59;1.35;;;0.57;;
57155;SDS011;43023;59.928;10.682;2023-03-23T14:15:30;0.60;;;0.60;;
57155;SDS011;43023;59.928;10.682;2023-03-23T14:17:56;1.10;;;0.45;;
57155;SDS011;43023;59.928;10.682;2023-03-23T14:20:26;0.28;;;0.22;;
57155;SDS011;43023;59.928;10.682;2023-03-23T14:22:57;0.47;;;0.45;;
57155;SDS011;43023;59.928;10.682;2023-03-23T14:25:26;1.00;;;0.40;;
57155;SDS011;43023;59.928;10.682;2023-03-23T14:27:52;0.40;;;0.40;;
57155;SDS011;43023;59.928;10.682;2023-03-23T14:30:20;1.00;;;0.55;;
57155;SDS011;43023;59.928;10.682;2023-03-23T14:32:46;0.40;;;0.40;;
57155;SDS011;43023;59.928;10.682;2023-03-23T14:37:43;0.55;;;0.50;;
57155;SDS011;43023;59.928;10.682;2023-03-23T14:40:13;0.95;;;0.47;;
57155;SDS011;43023;59.928;10.682;2023-03-23T14:42:40;0.52;;;0.40;;
57155;SDS011;43023;59.928;10.682;2023-03-23T14:45:10;0.85;;;0.40;;
57155;SDS011;43023;59.928;10.682;2023-03-23T14:47:38;0.90;;;0.57;;
57155;SDS011;43023;59.928;10.682;2023-03-23T14:50:06;0.63;;;0.63;;
57155;SDS011;43023;59.928;10.682;2023-03-23T14:52:47;0.43;;;0.43;;
57155;SDS011;43023;59.928;10.682;2023-03-23T14:55:15;1.40;;;0.55;;
57155;SDS011;43023;59.928;10.682;2023-03-23T14:57:42;0.77;;;0.40;;
57155;SDS011;43023;59.928;10.682;2023-03-23T15:00:12;1.50;;;0.45;;
57155;SDS011;43023;59.928;10.682;2023-03-23T15:02:40;0.57;;;0.40;;
57155;SDS011;43023;59.928;10.682;2023-03-23T15:05:13;1.10;;;0.57;;
57155;SDS011;43023;59.928;10.682;2023-03-23T15:07:41;4.13;;;0.70;;
57155;SDS011;43023;59.928;10.682;2023-03-23T15:10:09;0.82;;;0.60;;
57155;SDS011;43023;59.928;10.682;2023-03-23T15:12:39;1.85;;;0.47;;
57155;SDS011;43023;59.928;10.682;2023-03-23T15:15:05;0.30;;;0.30;;
57155;SDS011;43023;59.928;10.682;2023-03-23T15:17:34;4.03;;;0.40;;
57155;SDS011;43023;59.928;10.682;2023-03-23T15:20:11;2.28;;;0.50;;
57155;SDS011;43023;59.928;10.682;2023-03-23T15:22:46;2.67;;;0.70;;
57155;SDS011;43023;59.928;10.682;2023-03-23T15:25:19;0.50;;;0.50;;
57155;SDS011;43023;59.928;10.682;2023-03-23T15:27:53;0.50;;;0.30;;
57155;SDS011;43023;59.928;10.682;2023-03-23T15:32:51;0.73;;;0.28;;
57155;SDS011;43023;59.928;10.682;2023-03-23T15:35:18;2.83;;;0.40;;
57155;SDS011;43023;59.928;10.682;2023-03-23T15:37:46;0.68;;;0.40;;
57155;SDS011;43023;59.928;10.682;2023-03-23T15:40:14;0.30;;;0.30;;
57155;SDS011;43023;59.928;10.682;2023-03-23T15:42:40;0.68;;;0.40;;
57155;SDS011;43023;59.928;10.682;2023-03-23T15:50:19;1.08;;;0.40;;
57155;SDS011;43023;59.928;10.682;2023-03-23T15:52:45;1.52;;;0.77;;
57155;SDS011;43023;59.928;10.682;2023-03-23T15:57:50;4.07;;;0.52;;
57155;SDS011;43023;59.928;10.682;2023-03-23T16:00:17;2.72;;;0.43;;
57155;SDS011;43023;59.928;10.682;2023-03-23T16:02:44;0.47;;;0.43;;
57155;SDS011;43023;59.928;10.682;2023-03-23T16:05:11;4.55;;;0.70;;
57155;SDS011;43023;59.928;10.682;2023-03-23T16:07:38;0.65;;;0.50;;
57155;SDS011;43023;59.928;10.682;2023-03-23T16:10:04;2.35;;;0.43;;
57155;SDS011;43023;59.928;10.682;2023-03-23T16:12:31;0.50;;;0.50;;
57155;SDS011;43023;59.928;10.682;2023-03-23T16:14:57;0.55;;;0.40;;
57155;SDS011;43023;59.928;10.682;2023-03-23T16:17:23;0.75;;;0.40;;
57155;SDS011;43023;59.928;10.682;2023-03-23T16:19:50;10.25;;;0.90;;
57155;SDS011;43023;59.928;10.682;2023-03-23T16:22:16;0.70;;;0.50;;
57155;SDS011;43023;59.928;10.682;2023-03-23T16:24:42;2.55;;;0.65;;
57155;SDS011;43023;59.928;10.682;2023-03-23T16:27:08;0.77;;;0.57;;
57155;SDS011;43023;59.928;10.682;2023-03-23T16:29:35;0.50;;;0.50;;
57155;SDS011;43023;59.928;10.682;2023-03-23T16:32:01;1.92;;;1.00;;
57155;SDS011;43023;59.928;10.682;2023-03-23T16:34:27;1.38;;;0.55;;
57155;SDS011;43023;59.928;10.682;2023-03-23T16:36:57;0.57;;;0.40;;
57155;SDS011;43023;59.928;10.682;2023-03-23T16:39:23;3.15;;;0.55;;
57155;SDS011;43023;59.928;10.682;2023-03-23T16:41:49;2.70;;;0.65;;
57155;SDS011;43023;59.928;10.682;2023-03-23T16:44:15;0.85;;;0.45;;
57155;SDS011;43023;59.928;10.682;2023-03-23T16:46:41;1.45;;;0.65;;